Hillsborough, NC (27278)

3:23 PM EST on November 24, 2014 (GMT -0500)
Churton Grove | Change Station
CLOSE
Current Station
Personal Weather Station
Location: Hillsborough, NC
Elevation: 643 ft
Nearby Weather Stations

Elev 643 ft 36.09 °N, 79.07 °W | Updated 18 seconds ago

Mostly Cloudy
Mostly Cloudy
71.9 °F
Feels Like 75 °F
N
4.0
Wind Variable Wind from SSW
Gusts 10.0 mph

Today
High -- | Low -- °F
--% Chance of Precip.
Yesterday
High -- | Low -- °F
Precip. -- in
7:01 AM 5:03 PM
Waxing Crescent, 7% visible
Pressure 29.74 in
Visibility 10.0 miles
Clouds Few 2800 ft
Mostly Cloudy 10000 ft
Heat Index 75 °F
Dew Point 61 °F
Humidity 69%
Rainfall 0.00 in
Snow Depth Not available.
UV 1 out of 12
Pollen .30 out of 12
Air Quality Not available.
Flu Activity Not available.
METAR KIGX 241956Z AUTO VRB03KT 10SM FEW028 BKN100 22/16 A2975 RMK AO2 SLP069 T02220156 PWINO

More Conditions Fewer Conditions

Pressure 29.74 in
Visibility 10.0 miles
Clouds Few 2800 ft
Mostly Cloudy 10000 ft
Heat Index 75 °F
Dew Point 61 °F
Humidity 69%
Rainfall 0.00 in
Snow Depth Not available.
UV 1 out of 12
Pollen .30 out of 12
Air Quality Not available.
Flu Activity Not available.
METAR KIGX 241956Z AUTO VRB03KT 10SM FEW028 BKN100 22/16 A2975 RMK AO2 SLP069 T02220156 PWINO

More Conditions Fewer Conditions

10-Day Weather Forecast

Almanac

Astronomy

Nov. 24, 2014 Rise Set
Actual Time
Civil Twilight
Nautical Twilight
Astronomical Twilight
Moon
Length of Visible Light
Length of Day
Tomorrow will be .
, % of the Moon is Illuminated

Today's Extremes

State Highs State Lows

Community

WunderPhotos

Upload Photos

1,773,403 photos uploaded!

WunderBlogs® & News

Nearby

Air Quality

  Air Quality AQ Index Pollutant
Not available.

Snow Depth

Station Depth Elevation

Earthquake Activity

City Distance Mag. Time & Date
Minimum magnitude displayed is 2.5.

Coastal Water Temperatures

Place Temperature

Nearby Weather Stations